createdAt,value
2023-03-26T00:00:24.481Z,100.0
2023-03-26T00:05:24.522Z,100.0
2023-03-26T00:10:24.490Z,100.0
2023-03-26T00:15:24.512Z,100.0
2023-03-26T00:20:24.484Z,100.0
2023-03-26T00:25:24.493Z,100.0
2023-03-26T00:30:24.506Z,100.0
2023-03-26T00:35:24.516Z,100.0
2023-03-26T00:40:24.539Z,100.0
2023-03-26T00:45:24.572Z,100.0
2023-03-26T00:50:24.505Z,100.0
2023-03-26T00:55:24.515Z,100.0
2023-03-26T01:00:24.517Z,100.0
2023-03-26T01:05:24.576Z,100.0
2023-03-26T01:10:24.523Z,100.0
2023-03-26T01:15:24.695Z,100.0
2023-03-26T01:20:24.521Z,100.0
2023-03-26T01:25:24.532Z,100.0
2023-03-26T01:30:24.547Z,100.0
2023-03-26T01:35:24.567Z,100.0
2023-03-26T01:40:24.542Z,100.0
2023-03-26T01:45:24.622Z,100.0
2023-03-26T01:50:24.551Z,100.0
2023-03-26T01:55:24.543Z,100.0
2023-03-26T02:00:24.544Z,100.0
2023-03-26T02:05:24.555Z,100.0
2023-03-26T02:10:24.559Z,100.0
2023-03-26T02:15:24.670Z,100.0
2023-03-26T02:20:24.558Z,100.0
2023-03-26T02:25:24.611Z,100.0
2023-03-26T02:30:24.568Z,100.0
2023-03-26T02:35:24.627Z,100.0
2023-03-26T02:40:24.568Z,100.0
2023-03-26T02:45:24.609Z,100.0
2023-03-26T02:50:24.576Z,100.0
2023-03-26T02:55:24.595Z,100.0
2023-03-26T03:00:24.576Z,100.0
2023-03-26T03:05:24.574Z,100.0
2023-03-26T03:10:24.581Z,100.0
2023-03-26T03:15:24.719Z,100.0
2023-03-26T03:20:24.596Z,100.0
2023-03-26T03:25:24.598Z,100.0
2023-03-26T03:30:24.597Z,100.0
2023-03-26T03:35:24.664Z,100.0
2023-03-26T03:40:24.600Z,100.0
2023-03-26T03:45:24.779Z,100.0
2023-03-26T03:50:24.613Z,100.0
2023-03-26T03:55:24.618Z,100.0
2023-03-26T04:00:24.622Z,100.0
2023-03-26T04:05:24.614Z,100.0
2023-03-26T04:10:24.627Z,100.0
2023-03-26T04:15:24.647Z,100.0
2023-03-26T04:20:24.634Z,100.0
2023-03-26T04:25:24.633Z,100.0
2023-03-26T04:30:24.643Z,100.0
2023-03-26T04:35:24.660Z,100.0
2023-03-26T04:40:24.635Z,100.0
2023-03-26T04:45:24.766Z,100.0
2023-03-26T04:50:24.657Z,100.0
2023-03-26T04:55:24.677Z,100.0
2023-03-26T05:00:24.654Z,100.0
2023-03-26T05:05:24.653Z,100.0
2023-03-26T05:10:24.648Z,100.0
2023-03-26T05:15:24.863Z,100.0
2023-03-26T05:20:24.656Z,100.0
2023-03-26T05:25:24.656Z,100.0
2023-03-26T05:30:24.666Z,100.0
2023-03-26T05:35:24.702Z,100.0
2023-03-26T05:40:24.683Z,100.0
2023-03-26T05:45:24.807Z,100.0
2023-03-26T05:50:24.683Z,100.0
2023-03-26T05:55:24.697Z,100.0
2023-03-26T06:00:24.682Z,100.0
2023-03-26T06:05:24.682Z,100.0
2023-03-26T06:10:24.689Z,100.0
2023-03-26T06:15:24.838Z,100.0
2023-03-26T06:20:24.703Z,100.0
2023-03-26T06:25:24.710Z,100.0
2023-03-26T06:30:24.722Z,100.0
2023-03-26T06:35:24.708Z,100.0
2023-03-26T06:40:24.784Z,100.0
2023-03-26T06:45:24.838Z,100.0
2023-03-26T06:50:24.762Z,100.0
2023-03-26T06:55:24.726Z,100.0
2023-03-26T07:00:24.768Z,100.0
2023-03-26T07:05:24.731Z,100.0
2023-03-26T07:10:24.735Z,100.0
2023-03-26T07:15:24.853Z,100.0
2023-03-26T07:20:24.746Z,100.0
2023-03-26T07:25:24.732Z,100.0
2023-03-26T07:30:24.749Z,100.0
2023-03-26T07:35:24.773Z,100.0
2023-03-26T07:40:24.747Z,100.0
2023-03-26T07:45:24.780Z,100.0
2023-03-26T07:50:24.749Z,100.0
2023-03-26T07:55:24.761Z,100.0
2023-03-26T08:00:24.803Z,100.0
2023-03-26T08:05:24.759Z,100.0
2023-03-26T08:10:24.760Z,100.0
2023-03-26T08:15:24.911Z,100.0
2023-03-26T08:20:24.768Z,100.0
2023-03-26T08:25:24.768Z,100.0
2023-03-26T08:30:24.792Z,100.0
2023-03-26T08:35:24.817Z,100.0
2023-03-26T08:40:24.775Z,100.0
2023-03-26T08:45:24.867Z,100.0
2023-03-26T08:50:24.800Z,99.5
2023-03-26T08:55:24.783Z,99.7
2023-03-26T09:00:24.800Z,98.5
2023-03-26T09:05:24.784Z,98.1
2023-03-26T09:10:24.791Z,98.2
2023-03-26T09:15:24.926Z,97.7
2023-03-26T09:20:24.816Z,98.1
2023-03-26T09:25:24.810Z,97.7
2023-03-26T09:30:24.824Z,97.7
2023-03-26T09:35:24.835Z,96.7
2023-03-26T09:40:24.816Z,96.0
2023-03-26T09:45:25.015Z,95.5
2023-03-26T09:50:24.836Z,94.9
2023-03-26T09:55:24.827Z,94.7
2023-03-26T10:00:24.815Z,95.3
2023-03-26T10:05:24.826Z,96.1
2023-03-26T10:10:24.830Z,96.7
2023-03-26T10:15:25.247Z,96.8
2023-03-26T10:20:24.846Z,97.0
2023-03-26T10:25:24.881Z,96.8
2023-03-26T10:30:24.849Z,97.4
2023-03-26T10:35:24.888Z,96.7
2023-03-26T10:40:24.843Z,96.9
2023-03-26T10:45:24.977Z,97.0
2023-03-26T10:50:24.846Z,96.2
2023-03-26T10:55:25.535Z,95.8
2023-03-26T11:00:24.874Z,94.8
2023-03-26T11:05:24.873Z,92.7
2023-03-26T11:10:24.866Z,92.7
2023-03-26T11:15:24.950Z,92.9
2023-03-26T11:20:24.871Z,92.8
2023-03-26T11:25:24.873Z,92.3
2023-03-26T11:30:24.876Z,93.0
2023-03-26T11:35:39.895Z,91.6
2023-03-26T11:40:24.879Z,90.7
2023-03-26T11:45:24.931Z,91.7
2023-03-26T11:50:24.886Z,93.6
2023-03-26T11:55:24.928Z,96.0
2023-03-26T12:00:24.893Z,96.9
2023-03-26T12:05:24.978Z,96.6
2023-03-26T12:10:24.933Z,96.2
2023-03-26T12:15:24.995Z,95.2
2023-03-26T12:20:24.906Z,93.2
2023-03-26T12:25:24.977Z,92.6
2023-03-26T12:30:24.904Z,92.0
2023-03-26T12:35:24.903Z,90.2
2023-03-26T12:40:24.919Z,89.2
2023-03-26T12:45:25.007Z,87.9
2023-03-26T12:50:34.298Z,87.1
2023-03-26T12:55:24.927Z,87.5
2023-03-26T13:00:24.920Z,85.9
2023-03-26T13:05:24.931Z,84.9
2023-03-26T13:10:24.934Z,83.0
2023-03-26T13:15:25.068Z,83.1
2023-03-26T13:20:24.947Z,82.4
2023-03-26T13:25:24.951Z,82.7
2023-03-26T13:30:24.939Z,81.6
2023-03-26T13:35:24.990Z,78.8
2023-03-26T13:40:24.960Z,78.8
2023-03-26T13:45:24.985Z,77.9
2023-03-26T13:50:24.957Z,76.4
2023-03-26T13:55:24.960Z,78.7
2023-03-26T14:00:24.964Z,77.4
2023-03-26T14:05:24.974Z,78.5
2023-03-26T14:10:24.988Z,77.9
2023-03-26T14:15:24.987Z,77.5
2023-03-26T14:20:24.970Z,76.2
2023-03-26T14:25:24.986Z,76.0
2023-03-26T14:30:24.975Z,75.9
2023-03-26T14:35:25.060Z,76.5
2023-03-26T14:40:24.983Z,75.8
2023-03-26T14:45:25.021Z,77.6
2023-03-26T14:50:24.986Z,75.6
2023-03-26T14:55:24.991Z,75.8
2023-03-26T15:00:24.998Z,76.0
2023-03-26T15:05:25.011Z,75.6
2023-03-26T15:10:25.005Z,74.8
2023-03-26T15:15:25.057Z,75.0
2023-03-26T15:20:25.011Z,73.7
2023-03-26T15:25:25.012Z,73.8
2023-03-26T15:30:25.035Z,73.9
2023-03-26T15:35:25.029Z,74.3
2023-03-26T15:40:25.014Z,73.6
2023-03-26T15:45:25.059Z,73.4
2023-03-26T15:50:25.022Z,74.1
2023-03-26T15:55:25.022Z,71.7
2023-03-26T16:00:25.031Z,71.2
2023-03-26T16:05:25.113Z,72.1
2023-03-26T16:10:25.031Z,72.3
2023-03-26T16:15:25.170Z,71.4
2023-03-26T16:20:25.038Z,70.0
2023-03-26T16:25:28.294Z,70.5
2023-03-26T16:30:25.043Z,70.8
2023-03-26T16:35:25.049Z,69.8
2023-03-26T16:40:25.062Z,70.7
2023-03-26T16:45:25.075Z,71.7
2023-03-26T16:50:25.052Z,71.6
2023-03-26T16:55:25.064Z,71.4
2023-03-26T17:00:25.055Z,71.4
2023-03-26T17:05:25.069Z,72.1
2023-03-26T17:10:25.068Z,71.2
2023-03-26T17:15:25.172Z,69.3
2023-03-26T17:20:25.074Z,70.7
2023-03-26T17:25:25.072Z,70.8
2023-03-26T17:30:25.076Z,71.0
2023-03-26T17:35:25.086Z,70.4
2023-03-26T17:40:25.098Z,69.3
2023-03-26T17:45:25.224Z,67.6
2023-03-26T17:50:25.086Z,68.6
2023-03-26T17:55:25.092Z,69.3
2023-03-26T18:00:25.105Z,68.2
2023-03-26T18:05:25.110Z,69.4
2023-03-26T18:10:25.113Z,68.3
2023-03-26T18:15:25.236Z,67.2
2023-03-26T18:20:25.138Z,67.7
2023-03-26T18:25:25.150Z,66.3
2023-03-26T18:30:25.116Z,67.3
2023-03-26T18:35:25.150Z,68.7
2023-03-26T18:40:25.120Z,68.7
2023-03-26T18:45:25.310Z,68.9
2023-03-26T18:50:25.125Z,69.6
2023-03-26T18:55:25.121Z,70.2
2023-03-26T19:00:25.137Z,69.9
2023-03-26T19:05:25.129Z,70.9
2023-03-26T19:10:25.141Z,71.7
2023-03-26T19:15:25.171Z,74.1
2023-03-26T19:20:25.142Z,74.2
2023-03-26T19:25:25.157Z,74.4
2023-03-26T19:30:25.140Z,74.2
2023-03-26T19:35:25.167Z,74.0
2023-03-26T19:40:25.157Z,74.6
2023-03-26T19:45:25.181Z,75.7
2023-03-26T19:50:25.157Z,77.2
2023-03-26T19:55:25.165Z,78.5
2023-03-26T20:00:25.176Z,79.0
2023-03-26T20:05:25.190Z,79.2
2023-03-26T20:10:25.180Z,80.2
2023-03-26T20:15:25.312Z,80.7
2023-03-26T20:20:25.181Z,81.6
2023-03-26T20:25:26.056Z,81.8
2023-03-26T20:30:36.988Z,81.8
2023-03-26T20:35:36.173Z,82.1
2023-03-26T20:40:25.178Z,81.5
2023-03-26T20:45:25.309Z,81.4
2023-03-26T20:50:25.187Z,81.3
2023-03-26T20:55:25.191Z,81.5
2023-03-26T21:00:25.198Z,81.0
2023-03-26T21:05:25.197Z,81.1
2023-03-26T21:10:25.205Z,81.5
2023-03-26T21:15:25.285Z,81.3
2023-03-26T21:20:25.204Z,82.0
2023-03-26T21:25:25.211Z,82.2
2023-03-26T21:30:25.209Z,82.7
2023-03-26T21:35:25.278Z,83.0
2023-03-26T21:40:25.225Z,83.0
2023-03-26T21:45:25.362Z,83.0
2023-03-26T21:50:25.234Z,83.6
2023-03-26T21:55:25.222Z,83.6
2023-03-26T22:00:30.796Z,83.9
2023-03-26T22:05:25.234Z,84.1
2023-03-26T22:10:25.251Z,84.4
2023-03-26T22:15:25.341Z,84.5
2023-03-26T22:20:25.347Z,84.7
2023-03-26T22:25:25.252Z,84.7
2023-03-26T22:30:25.246Z,84.7
2023-03-26T22:35:25.276Z,84.9
2023-03-26T22:40:25.252Z,84.9
2023-03-26T22:45:25.288Z,85.2
2023-03-26T22:50:25.262Z,85.3
2023-03-26T22:55:28.757Z,85.1
2023-03-26T23:00:25.272Z,85.1
2023-03-26T23:05:25.276Z,85.0
2023-03-26T23:10:25.274Z,85.4
2023-03-26T23:15:25.405Z,86.2
2023-03-26T23:20:25.273Z,86.5
2023-03-26T23:25:25.285Z,87.1
2023-03-26T23:30:25.280Z,87.2
2023-03-26T23:35:25.305Z,87.5
2023-03-26T23:40:25.290Z,88.2
2023-03-26T23:45:25.343Z,88.2
2023-03-26T23:50:25.292Z,88.6
2023-03-26T23:55:25.295Z,88.9
